createdAt,value
2022-07-29T00:00:03.501Z,26.04
2022-07-29T00:00:33.925Z,26.03
2022-07-29T00:01:04.348Z,26.03
2022-07-29T00:01:34.767Z,26.01
2022-07-29T00:02:05.187Z,25.99
2022-07-29T00:02:35.686Z,26.00
2022-07-29T00:03:06.177Z,25.99
2022-07-29T00:03:36.642Z,26.00
2022-07-29T00:04:10.705Z,26.02
2022-07-29T00:04:41.180Z,26.03
2022-07-29T00:05:11.594Z,26.01
2022-07-29T00:05:42.019Z,26.01
2022-07-29T00:06:12.446Z,26.01
2022-07-29T00:06:42.859Z,26.00
2022-07-29T00:07:13.279Z,26.00
2022-07-29T00:07:44.358Z,26.01
2022-07-29T00:08:14.780Z,26.02
2022-07-29T00:08:45.198Z,26.03
2022-07-29T00:09:15.618Z,26.06
2022-07-29T00:09:51.796Z,26.05
2022-07-29T00:10:21.369Z,26.06
2022-07-29T00:10:51.796Z,26.06
2022-07-29T00:11:22.214Z,26.04
2022-07-29T00:11:52.631Z,26.04
2022-07-29T00:12:26.181Z,26.03
2022-07-29T00:12:57.204Z,26.02
2022-07-29T00:13:32.315Z,26.02
2022-07-29T00:14:02.948Z,25.98
2022-07-29T00:14:33.368Z,25.98
2022-07-29T00:15:03.801Z,25.97
2022-07-29T00:15:34.220Z,25.97
2022-07-29T00:16:05.256Z,25.99
2022-07-29T00:16:35.830Z,25.99
2022-07-29T00:17:06.241Z,26.00
2022-07-29T00:17:36.663Z,25.99
2022-07-29T00:18:07.081Z,25.98
2022-07-29T00:18:37.501Z,26.00
2022-07-29T00:19:08.116Z,26.02
2022-07-29T00:19:38.479Z,26.03
2022-07-29T00:20:08.911Z,26.03
2022-07-29T00:20:39.333Z,26.03
2022-07-29T00:21:09.750Z,26.02
2022-07-29T00:21:40.169Z,26.02
2022-07-29T00:22:10.591Z,26.01
2022-07-29T00:22:41.011Z,26.01
2022-07-29T00:23:13.698Z,26.02
2022-07-29T00:23:44.153Z,26.01
2022-07-29T00:24:14.780Z,26.01
2022-07-29T00:24:45.349Z,26.01
2022-07-29T00:25:15.783Z,26.02
2022-07-29T00:25:46.202Z,26.03
2022-07-29T00:26:16.620Z,26.02
2022-07-29T00:26:47.055Z,26.01
2022-07-29T00:27:17.474Z,26.02
2022-07-29T00:27:47.894Z,26.02
2022-07-29T00:28:18.312Z,26.02
2022-07-29T00:28:48.730Z,26.00
2022-07-29T00:29:33.444Z,25.99
2022-07-29T00:29:54.471Z,25.98
2022-07-29T00:30:24.900Z,25.97
2022-07-29T00:30:55.323Z,25.97
2022-07-29T00:31:25.831Z,26.00
2022-07-29T00:31:56.275Z,25.99
2022-07-29T00:32:26.662Z,25.97
2022-07-29T00:32:57.084Z,25.95
2022-07-29T00:33:27.501Z,25.94
2022-07-29T00:33:57.923Z,25.94
2022-07-29T00:34:28.343Z,25.94
2022-07-29T00:34:58.774Z,25.94
2022-07-29T00:35:29.193Z,25.95
2022-07-29T00:35:59.617Z,25.97
2022-07-29T00:36:30.037Z,25.95
2022-07-29T00:37:00.458Z,25.94
2022-07-29T00:37:30.876Z,25.93
2022-07-29T00:38:02.117Z,25.96
2022-07-29T00:38:32.543Z,25.98
2022-07-29T00:39:02.965Z,25.97
2022-07-29T00:39:33.385Z,25.96
2022-07-29T00:40:03.812Z,25.96
2022-07-29T00:40:34.231Z,25.95
2022-07-29T00:41:04.651Z,25.92
2022-07-29T00:41:35.073Z,25.90
2022-07-29T00:42:05.489Z,25.91
2022-07-29T00:42:35.912Z,25.92
2022-07-29T00:43:06.330Z,25.96
2022-07-29T00:43:36.750Z,25.95
2022-07-29T00:44:07.170Z,25.95
2022-07-29T00:44:37.618Z,25.95
2022-07-29T00:45:08.012Z,25.94
2022-07-29T00:45:38.433Z,25.95
2022-07-29T00:46:08.855Z,25.94
2022-07-29T00:46:39.363Z,25.95
2022-07-29T00:47:09.793Z,25.96
2022-07-29T00:47:40.218Z,25.97
2022-07-29T00:48:10.642Z,25.97
2022-07-29T00:48:41.128Z,25.95
2022-07-29T00:49:11.582Z,25.94
2022-07-29T00:49:42.048Z,25.94
2022-07-29T00:50:12.473Z,25.96
2022-07-29T00:50:42.889Z,25.97
2022-07-29T00:51:13.314Z,25.95
2022-07-29T00:51:43.734Z,25.94
2022-07-29T00:52:16.952Z,25.93
2022-07-29T00:52:47.620Z,25.93
2022-07-29T00:53:18.045Z,25.93
2022-07-29T00:53:48.469Z,25.93
2022-07-29T00:54:19.376Z,25.93
2022-07-29T00:54:49.892Z,25.92
2022-07-29T00:55:20.315Z,25.93
2022-07-29T00:55:50.737Z,25.92
2022-07-29T00:56:22.811Z,25.93
2022-07-29T00:56:53.233Z,25.94
2022-07-29T00:57:23.652Z,25.93
2022-07-29T00:57:54.083Z,25.91
2022-07-29T00:58:24.505Z,25.91
2022-07-29T00:58:54.923Z,25.90
2022-07-29T00:59:25.344Z,25.90
2022-07-29T01:00:00.682Z,25.88
2022-07-29T01:00:31.180Z,25.89
2022-07-29T01:01:01.680Z,25.88
2022-07-29T01:01:32.062Z,25.88
2022-07-29T01:02:02.570Z,25.89
2022-07-29T01:02:33.138Z,25.89
2022-07-29T01:03:03.546Z,25.87
2022-07-29T01:03:35.083Z,25.87
2022-07-29T01:04:05.508Z,25.87
2022-07-29T01:04:35.927Z,25.87
2022-07-29T01:05:06.361Z,25.90
2022-07-29T01:05:50.395Z,25.92
2022-07-29T01:06:12.104Z,25.91
2022-07-29T01:06:42.521Z,25.90
2022-07-29T01:07:12.940Z,25.89
2022-07-29T01:07:43.377Z,25.88
2022-07-29T01:08:13.797Z,25.88
2022-07-29T01:08:44.226Z,25.88
2022-07-29T01:09:14.648Z,25.88
2022-07-29T01:09:45.837Z,25.88
2022-07-29T01:10:16.875Z,25.87
2022-07-29T01:10:47.295Z,25.87
2022-07-29T01:11:17.715Z,25.87
2022-07-29T01:11:48.137Z,25.87
2022-07-29T01:12:18.561Z,25.86
2022-07-29T01:12:48.977Z,25.86
2022-07-29T01:13:19.396Z,25.89
2022-07-29T01:13:49.816Z,25.91
2022-07-29T01:14:20.235Z,25.91
2022-07-29T01:14:50.654Z,25.90
2022-07-29T01:15:21.084Z,25.90
2022-07-29T01:15:51.618Z,25.88
2022-07-29T01:16:22.118Z,25.87
2022-07-29T01:16:52.535Z,25.87
2022-07-29T01:17:22.957Z,25.85
2022-07-29T01:17:53.931Z,25.87
2022-07-29T01:18:24.354Z,25.87
2022-07-29T01:18:54.744Z,25.91
2022-07-29T01:19:25.161Z,25.92
2022-07-29T01:19:55.589Z,25.91
2022-07-29T01:20:31.299Z,25.88
2022-07-29T01:21:01.333Z,25.87
2022-07-29T01:21:31.751Z,25.86
2022-07-29T01:22:02.172Z,25.88
2022-07-29T01:22:32.592Z,25.88
2022-07-29T01:23:03.023Z,25.87
2022-07-29T01:23:33.442Z,25.87
2022-07-29T01:24:03.866Z,25.88
2022-07-29T01:24:34.297Z,25.88
2022-07-29T01:25:04.720Z,25.88
2022-07-29T01:25:35.139Z,25.86
2022-07-29T01:26:05.904Z,25.87
2022-07-29T01:26:36.289Z,25.87
2022-07-29T01:27:06.740Z,25.88
2022-07-29T01:27:38.783Z,25.87
2022-07-29T01:28:09.713Z,25.86
2022-07-29T01:28:42.148Z,25.87
2022-07-29T01:29:13.010Z,25.86
2022-07-29T01:29:43.424Z,25.87
2022-07-29T01:30:16.242Z,25.86
2022-07-29T01:30:46.865Z,25.83
2022-07-29T01:31:23.787Z,25.84
2022-07-29T01:31:59.098Z,25.85
2022-07-29T01:32:29.464Z,25.84
2022-07-29T01:32:59.990Z,25.84
2022-07-29T01:33:30.410Z,25.85
2022-07-29T01:34:00.842Z,25.84
2022-07-29T01:34:31.249Z,25.86
2022-07-29T01:35:01.677Z,25.86
2022-07-29T01:35:32.098Z,25.85
2022-07-29T01:36:02.516Z,25.84
2022-07-29T01:36:32.937Z,25.86
2022-07-29T01:37:03.355Z,25.87
2022-07-29T01:37:33.772Z,25.85
2022-07-29T01:38:04.192Z,25.85
2022-07-29T01:38:34.612Z,25.84
2022-07-29T01:39:05.030Z,25.82
2022-07-29T01:39:35.451Z,25.81
2022-07-29T01:40:05.877Z,25.83
2022-07-29T01:40:36.295Z,25.82
2022-07-29T01:41:06.718Z,25.81
2022-07-29T01:41:37.150Z,25.81
2022-07-29T01:42:07.569Z,25.81
2022-07-29T01:42:37.987Z,25.84
2022-07-29T01:43:08.407Z,25.84
2022-07-29T01:43:38.827Z,25.83
2022-07-29T01:44:09.259Z,25.81
2022-07-29T01:44:39.680Z,25.81
2022-07-29T01:45:10.107Z,25.80
2022-07-29T01:45:40.527Z,25.80
2022-07-29T01:46:11.015Z,25.79
2022-07-29T01:46:41.485Z,25.79
2022-07-29T01:47:11.838Z,25.77
2022-07-29T01:47:42.260Z,25.78
2022-07-29T01:48:12.674Z,25.77
2022-07-29T01:48:43.137Z,25.78
2022-07-29T01:49:13.578Z,25.77
2022-07-29T01:49:44.006Z,25.77
2022-07-29T01:50:14.433Z,25.76
2022-07-29T01:50:44.852Z,25.77
2022-07-29T01:51:15.272Z,25.77
2022-07-29T01:51:45.694Z,25.78
2022-07-29T01:52:16.114Z,25.78
2022-07-29T01:52:49.814Z,25.79
2022-07-29T01:53:20.234Z,25.77
2022-07-29T01:53:50.653Z,25.77
2022-07-29T01:54:21.076Z,25.77
2022-07-29T01:54:51.493Z,25.76
2022-07-29T01:55:21.930Z,25.75
2022-07-29T01:55:52.459Z,25.76
2022-07-29T01:56:22.813Z,25.75
2022-07-29T01:56:53.237Z,25.77
2022-07-29T01:57:23.656Z,25.78
2022-07-29T01:57:54.074Z,25.77
2022-07-29T01:58:24.493Z,25.78
2022-07-29T01:58:54.912Z,25.77
2022-07-29T01:59:25.328Z,25.78
2022-07-29T01:59:55.747Z,25.77
2022-07-29T02:00:26.512Z,25.76
2022-07-29T02:00:56.929Z,25.78
2022-07-29T02:01:27.383Z,25.79
2022-07-29T02:01:57.820Z,25.80
2022-07-29T02:02:28.195Z,25.83
2022-07-29T02:02:58.618Z,25.81
2022-07-29T02:03:29.035Z,25.82
2022-07-29T02:03:59.457Z,25.83
2022-07-29T02:04:30.450Z,25.82
2022-07-29T02:05:00.967Z,25.80
2022-07-29T02:05:31.480Z,25.79
2022-07-29T02:06:01.875Z,25.77
2022-07-29T02:06:32.294Z,25.77
2022-07-29T02:07:02.736Z,25.77
2022-07-29T02:07:33.148Z,25.77
2022-07-29T02:08:03.570Z,25.76
2022-07-29T02:08:33.990Z,25.75
2022-07-29T02:09:04.411Z,25.73
2022-07-29T02:09:38.860Z,25.73
2022-07-29T02:10:09.286Z,25.73
2022-07-29T02:10:39.704Z,25.73
2022-07-29T02:11:10.123Z,25.76
2022-07-29T02:11:40.544Z,25.76
2022-07-29T02:12:10.965Z,25.76
2022-07-29T02:12:41.384Z,25.77
2022-07-29T02:13:11.800Z,25.79
2022-07-29T02:13:42.219Z,25.78
2022-07-29T02:14:12.970Z,25.78
2022-07-29T02:14:43.532Z,25.79
2022-07-29T02:15:13.964Z,25.80
2022-07-29T02:15:45.848Z,25.80
2022-07-29T02:16:16.369Z,25.80
2022-07-29T02:16:46.766Z,25.79
2022-07-29T02:17:17.187Z,25.78
2022-07-29T02:17:47.605Z,25.77
2022-07-29T02:18:18.026Z,25.75
2022-07-29T02:18:48.450Z,25.76
2022-07-29T02:19:19.126Z,25.76
2022-07-29T02:19:49.551Z,25.76
2022-07-29T02:20:19.990Z,25.76
2022-07-29T02:20:50.407Z,25.75
2022-07-29T02:21:20.825Z,25.75
2022-07-29T02:21:51.244Z,25.76
2022-07-29T02:22:21.667Z,25.76
2022-07-29T02:22:52.085Z,25.77
2022-07-29T02:23:22.504Z,25.78
2022-07-29T02:23:52.926Z,25.77
2022-07-29T02:24:23.349Z,25.76
2022-07-29T02:24:53.768Z,25.75
2022-07-29T02:25:24.194Z,25.77
2022-07-29T02:25:54.619Z,25.78
2022-07-29T02:26:25.032Z,25.79
2022-07-29T02:26:55.450Z,25.77
2022-07-29T02:27:25.869Z,25.77
2022-07-29T02:27:56.287Z,25.75
2022-07-29T02:28:26.714Z,25.73
2022-07-29T02:28:57.131Z,25.73
2022-07-29T02:29:27.553Z,25.71
2022-07-29T02:29:57.969Z,25.74
2022-07-29T02:30:28.398Z,25.74
2022-07-29T02:30:58.858Z,25.73
2022-07-29T02:31:29.289Z,25.73
2022-07-29T02:31:59.672Z,25.73
2022-07-29T02:32:30.095Z,25.74
2022-07-29T02:33:00.515Z,25.75
2022-07-29T02:33:30.930Z,25.75
2022-07-29T02:34:01.351Z,25.77
2022-07-29T02:34:31.771Z,25.75
2022-07-29T02:35:02.202Z,25.74
2022-07-29T02:35:34.484Z,25.73
2022-07-29T02:36:05.344Z,25.73
2022-07-29T02:36:35.763Z,25.73
2022-07-29T02:37:06.182Z,25.72
2022-07-29T02:37:36.601Z,25.71
2022-07-29T02:38:07.021Z,25.73
2022-07-29T02:38:37.453Z,25.74
2022-07-29T02:39:07.875Z,25.74
2022-07-29T02:39:41.203Z,25.72
2022-07-29T02:40:11.623Z,25.71
2022-07-29T02:40:42.057Z,25.71
2022-07-29T02:41:12.469Z,25.70
2022-07-29T02:41:42.888Z,25.71
2022-07-29T02:42:13.308Z,25.71
2022-07-29T02:42:43.732Z,25.71
2022-07-29T02:43:14.149Z,25.72
2022-07-29T02:43:44.568Z,25.70
2022-07-29T02:44:15.352Z,25.70
2022-07-29T02:44:45.927Z,25.70
2022-07-29T02:45:16.347Z,25.70
2022-07-29T02:45:46.775Z,25.70
2022-07-29T02:46:29.096Z,25.69
2022-07-29T02:46:57.461Z,25.70
2022-07-29T02:47:27.864Z,25.70
2022-07-29T02:47:58.292Z,25.70
2022-07-29T02:48:28.709Z,25.70
2022-07-29T02:48:59.219Z,25.68
2022-07-29T02:49:29.600Z,25.68
2022-07-29T02:50:00.545Z,25.70
2022-07-29T02:50:31.166Z,25.70
2022-07-29T02:51:01.588Z,25.71
2022-07-29T02:51:44.162Z,25.70
2022-07-29T02:52:07.320Z,25.70
2022-07-29T02:52:37.751Z,25.70
2022-07-29T02:53:08.173Z,25.69
2022-07-29T02:53:38.590Z,25.68
2022-07-29T02:54:09.009Z,25.70
2022-07-29T02:54:39.427Z,25.71
2022-07-29T02:55:09.846Z,25.71
2022-07-29T02:55:40.277Z,25.70
2022-07-29T02:56:10.723Z,25.69
2022-07-29T02:56:41.116Z,25.67
2022-07-29T02:57:11.535Z,25.67
2022-07-29T02:57:54.493Z,25.67
2022-07-29T02:58:17.274Z,25.68
2022-07-29T02:58:47.694Z,25.67
2022-07-29T02:59:18.114Z,25.68
2022-07-29T02:59:48.541Z,25.68
2022-07-29T03:00:18.963Z,25.67
2022-07-29T03:00:49.403Z,25.66
2022-07-29T03:01:21.902Z,25.67
2022-07-29T03:01:52.503Z,25.67
2022-07-29T03:02:22.887Z,25.68
2022-07-29T03:02:53.308Z,25.68
2022-07-29T03:03:23.727Z,25.66
2022-07-29T03:03:54.145Z,25.66
2022-07-29T03:04:24.580Z,25.67
2022-07-29T03:04:55.053Z,25.67
2022-07-29T03:05:25.456Z,25.67
2022-07-29T03:05:55.877Z,25.66
2022-07-29T03:06:28.796Z,25.67
2022-07-29T03:07:01.624Z,25.66
2022-07-29T03:07:32.045Z,25.68
2022-07-29T03:08:02.456Z,25.67
2022-07-29T03:08:32.875Z,25.67
2022-07-29T03:09:03.301Z,25.68
2022-07-29T03:09:33.714Z,25.70
2022-07-29T03:10:04.134Z,25.70
2022-07-29T03:10:34.560Z,25.68
2022-07-29T03:11:04.978Z,25.68
2022-07-29T03:11:46.199Z,25.67
2022-07-29T03:12:10.720Z,25.67
2022-07-29T03:12:41.146Z,25.65
2022-07-29T03:13:11.563Z,25.66
2022-07-29T03:13:41.981Z,25.66
2022-07-29T03:14:12.558Z,25.67
2022-07-29T03:14:43.119Z,25.66
2022-07-29T03:15:13.549Z,25.67
2022-07-29T03:15:44.021Z,25.68
2022-07-29T03:16:14.417Z,25.67
2022-07-29T03:16:44.894Z,25.67
2022-07-29T03:17:15.285Z,25.68
2022-07-29T03:17:45.707Z,25.66
2022-07-29T03:18:16.127Z,25.65
2022-07-29T03:18:46.549Z,25.65
2022-07-29T03:19:16.969Z,25.67
2022-07-29T03:19:47.388Z,25.67
2022-07-29T03:20:17.808Z,25.68
2022-07-29T03:20:48.235Z,25.67
2022-07-29T03:21:18.658Z,25.66
2022-07-29T03:21:49.085Z,25.65
2022-07-29T03:22:19.498Z,25.67
2022-07-29T03:22:49.924Z,25.66
2022-07-29T03:23:20.337Z,25.67
2022-07-29T03:23:50.759Z,25.67
2022-07-29T03:24:21.183Z,25.66
2022-07-29T03:24:51.603Z,25.65
2022-07-29T03:25:22.047Z,25.65
2022-07-29T03:25:52.450Z,25.64
2022-07-29T03:26:22.868Z,25.64
2022-07-29T03:26:53.290Z,25.65
2022-07-29T03:27:23.710Z,25.65
2022-07-29T03:27:54.129Z,25.66
2022-07-29T03:28:24.551Z,25.65
2022-07-29T03:28:57.397Z,25.63
2022-07-29T03:29:33.910Z,25.64
2022-07-29T03:30:03.136Z,25.65
2022-07-29T03:30:33.883Z,25.66
2022-07-29T03:31:04.330Z,25.68
2022-07-29T03:31:36.159Z,25.68
2022-07-29T03:32:07.855Z,25.68
2022-07-29T03:32:39.136Z,25.67
2022-07-29T03:33:13.686Z,25.66
2022-07-29T03:33:44.204Z,25.64
2022-07-29T03:34:15.009Z,25.62
2022-07-29T03:34:45.546Z,25.59
2022-07-29T03:35:15.967Z,25.60
2022-07-29T03:35:46.390Z,25.59
2022-07-29T03:36:16.815Z,25.59
2022-07-29T03:36:47.232Z,25.59
2022-07-29T03:37:17.655Z,25.61
2022-07-29T03:37:48.078Z,25.60
2022-07-29T03:38:18.494Z,25.60
2022-07-29T03:38:48.936Z,25.59
2022-07-29T03:39:19.339Z,25.60
2022-07-29T03:39:49.759Z,25.61
2022-07-29T03:40:20.176Z,25.64
2022-07-29T03:40:50.611Z,25.64
2022-07-29T03:41:22.505Z,25.64
2022-07-29T03:41:53.075Z,25.61
2022-07-29T03:42:23.493Z,25.61
2022-07-29T03:42:53.915Z,25.60
2022-07-29T03:43:24.335Z,25.59
2022-07-29T03:43:54.755Z,25.60
2022-07-29T03:44:25.177Z,25.60
2022-07-29T03:44:55.606Z,25.60
2022-07-29T03:45:26.031Z,25.60
2022-07-29T03:45:56.493Z,25.60
2022-07-29T03:46:26.963Z,25.59
2022-07-29T03:46:57.334Z,25.60
2022-07-29T03:47:50.362Z,25.62
2022-07-29T03:48:03.075Z,25.63
2022-07-29T03:48:33.495Z,25.64
2022-07-29T03:49:04.021Z,25.65
2022-07-29T03:49:34.472Z,25.65
2022-07-29T03:50:04.905Z,25.67
2022-07-29T03:50:35.319Z,25.66
2022-07-29T03:51:05.742Z,25.65
2022-07-29T03:51:37.673Z,25.63
2022-07-29T03:52:08.094Z,25.63
2022-07-29T03:52:38.513Z,25.60
2022-07-29T03:53:08.935Z,25.60
2022-07-29T03:53:39.357Z,25.59
2022-07-29T03:54:10.374Z,25.59
2022-07-29T03:54:40.821Z,25.60
2022-07-29T03:55:11.236Z,25.61
2022-07-29T03:55:41.669Z,25.62
2022-07-29T03:56:12.090Z,25.63
2022-07-29T03:56:42.510Z,25.63
2022-07-29T03:57:12.934Z,25.63
2022-07-29T03:57:43.355Z,25.63
2022-07-29T03:58:13.773Z,25.63
2022-07-29T03:58:44.195Z,25.63
2022-07-29T03:59:14.616Z,25.64
2022-07-29T03:59:45.041Z,25.63
2022-07-29T04:00:15.580Z,25.63
2022-07-29T04:00:45.954Z,25.66
2022-07-29T04:01:16.430Z,25.66
2022-07-29T04:01:46.911Z,25.67
2022-07-29T04:02:21.878Z,25.67
2022-07-29T04:02:52.638Z,25.67
2022-07-29T04:03:23.128Z,25.64
2022-07-29T04:03:53.547Z,25.64
2022-07-29T04:04:23.926Z,25.64
2022-07-29T04:04:54.350Z,25.66
2022-07-29T04:05:24.790Z,25.65
2022-07-29T04:05:55.206Z,25.66
2022-07-29T04:06:25.628Z,25.66
2022-07-29T04:06:56.047Z,25.66
2022-07-29T04:07:26.469Z,25.67
2022-07-29T04:07:56.890Z,25.67
2022-07-29T04:08:28.059Z,25.66
2022-07-29T04:08:58.482Z,25.65
2022-07-29T04:09:28.903Z,25.63
2022-07-29T04:09:59.326Z,25.63
2022-07-29T04:10:31.873Z,25.64
2022-07-29T04:11:02.477Z,25.63
2022-07-29T04:11:32.893Z,25.65
2022-07-29T04:12:08.215Z,25.66
2022-07-29T04:12:38.636Z,25.65
2022-07-29T04:13:09.054Z,25.64
2022-07-29T04:13:39.478Z,25.65
2022-07-29T04:14:09.899Z,25.65
2022-07-29T04:14:40.317Z,25.64
2022-07-29T04:15:10.752Z,25.66
2022-07-29T04:15:41.231Z,25.65
2022-07-29T04:16:11.622Z,25.67
2022-07-29T04:16:42.028Z,25.67
2022-07-29T04:17:12.448Z,25.66
2022-07-29T04:17:42.867Z,25.65
2022-07-29T04:18:13.287Z,25.65
2022-07-29T04:18:43.706Z,25.64
2022-07-29T04:19:14.125Z,25.63
2022-07-29T04:19:44.543Z,25.63
2022-07-29T04:20:14.973Z,25.65
2022-07-29T04:20:45.394Z,25.64
2022-07-29T04:21:15.814Z,25.64
2022-07-29T04:21:46.239Z,25.65
2022-07-29T04:22:16.657Z,25.66
2022-07-29T04:22:47.075Z,25.65
2022-07-29T04:23:17.496Z,25.65
2022-07-29T04:23:53.795Z,25.65
2022-07-29T04:24:23.239Z,25.66
2022-07-29T04:24:53.662Z,25.68
2022-07-29T04:25:24.093Z,25.68
2022-07-29T04:25:54.511Z,25.68
2022-07-29T04:26:24.933Z,25.67
2022-07-29T04:26:55.356Z,25.66
2022-07-29T04:27:25.774Z,25.67
2022-07-29T04:27:56.201Z,25.68
2022-07-29T04:28:26.615Z,25.68
2022-07-29T04:28:57.035Z,25.69
2022-07-29T04:29:27.456Z,25.68
2022-07-29T04:29:57.875Z,25.68
2022-07-29T04:30:28.309Z,25.67
2022-07-29T04:30:58.739Z,25.67
2022-07-29T04:31:29.252Z,25.67
2022-07-29T04:31:59.660Z,25.67
2022-07-29T04:32:30.086Z,25.65
2022-07-29T04:33:00.500Z,25.64
2022-07-29T04:33:30.917Z,25.64
2022-07-29T04:34:01.336Z,25.64
2022-07-29T04:34:31.758Z,25.63
2022-07-29T04:35:02.181Z,25.64
2022-07-29T04:35:37.982Z,25.64
2022-07-29T04:36:07.927Z,25.61
2022-07-29T04:36:43.250Z,25.63
2022-07-29T04:37:13.670Z,25.63
2022-07-29T04:37:44.089Z,25.64
2022-07-29T04:38:15.937Z,25.66
2022-07-29T04:38:47.658Z,25.66
2022-07-29T04:39:22.486Z,25.67
2022-07-29T04:39:53.403Z,25.66
2022-07-29T04:40:23.818Z,25.65
2022-07-29T04:40:54.240Z,25.66
2022-07-29T04:41:28.542Z,25.67
2022-07-29T04:42:00.281Z,25.68
2022-07-29T04:42:31.614Z,25.67
2022-07-29T04:43:05.833Z,25.67
2022-07-29T04:43:36.869Z,25.69
2022-07-29T04:44:07.586Z,25.68
2022-07-29T04:44:39.740Z,25.67
2022-07-29T04:45:13.285Z,25.67
2022-07-29T04:45:44.515Z,25.68
2022-07-29T04:46:14.990Z,25.69
2022-07-29T04:46:45.442Z,25.70
2022-07-29T04:47:15.813Z,25.68
2022-07-29T04:47:46.237Z,25.69
2022-07-29T04:48:16.663Z,25.68
2022-07-29T04:48:47.097Z,25.69
2022-07-29T04:49:17.624Z,25.68
2022-07-29T04:49:48.019Z,25.67
2022-07-29T04:50:18.439Z,25.68
2022-07-29T04:50:48.874Z,25.69
2022-07-29T04:51:19.294Z,25.68
2022-07-29T04:51:49.713Z,25.66
2022-07-29T04:52:20.138Z,25.67
2022-07-29T04:52:50.558Z,25.66
2022-07-29T04:53:20.976Z,25.68
2022-07-29T04:53:51.400Z,25.68
2022-07-29T04:54:21.817Z,25.67
2022-07-29T04:54:52.236Z,25.68
2022-07-29T04:55:22.654Z,25.67
2022-07-29T04:55:53.081Z,25.67
2022-07-29T04:56:23.503Z,25.68
2022-07-29T04:56:53.950Z,25.68
2022-07-29T04:57:24.670Z,25.67
2022-07-29T04:57:55.037Z,25.68
2022-07-29T04:58:25.458Z,25.67
2022-07-29T04:58:55.877Z,25.67
2022-07-29T04:59:26.300Z,25.66
2022-07-29T04:59:56.719Z,25.65
2022-07-29T05:00:29.204Z,25.66
2022-07-29T05:01:02.492Z,25.67
2022-07-29T05:01:32.946Z,25.67
2022-07-29T05:02:03.381Z,25.69
2022-07-29T05:02:33.832Z,25.69
2022-07-29T05:03:04.320Z,25.69
2022-07-29T05:03:34.715Z,25.69
2022-07-29T05:04:05.135Z,25.69
2022-07-29T05:04:35.554Z,25.69
2022-07-29T05:05:05.977Z,25.70
2022-07-29T05:05:36.417Z,25.69
2022-07-29T05:06:06.836Z,25.70
2022-07-29T05:06:37.255Z,25.70
2022-07-29T05:07:07.678Z,25.70
2022-07-29T05:07:38.100Z,25.70
2022-07-29T05:08:08.521Z,25.70
2022-07-29T05:08:38.940Z,25.72
2022-07-29T05:09:12.242Z,25.73
2022-07-29T05:09:42.662Z,25.74
2022-07-29T05:10:13.081Z,25.76
2022-07-29T05:10:43.508Z,25.76
2022-07-29T05:11:18.131Z,25.75
2022-07-29T05:11:49.252Z,25.75
2022-07-29T05:12:19.673Z,25.74
2022-07-29T05:12:50.097Z,25.75
2022-07-29T05:13:20.518Z,25.76
2022-07-29T05:13:50.939Z,25.77
2022-07-29T05:14:21.361Z,25.77
2022-07-29T05:14:51.783Z,25.78
2022-07-29T05:15:22.200Z,25.79
2022-07-29T05:15:52.687Z,25.81
2022-07-29T05:16:23.144Z,25.84
2022-07-29T05:16:53.520Z,25.87
2022-07-29T05:17:23.943Z,25.87
2022-07-29T05:17:54.362Z,25.87
2022-07-29T05:18:25.932Z,25.89
2022-07-29T05:18:56.644Z,25.91
2022-07-29T05:19:27.064Z,25.92
2022-07-29T05:19:57.491Z,25.94
2022-07-29T05:20:27.910Z,25.95
2022-07-29T05:20:58.330Z,25.95
2022-07-29T05:21:28.749Z,25.96
2022-07-29T05:21:59.176Z,25.96
2022-07-29T05:22:29.602Z,25.95
2022-07-29T05:23:00.010Z,25.96
2022-07-29T05:23:30.431Z,25.96
2022-07-29T05:24:00.851Z,25.96
2022-07-29T05:24:31.276Z,25.98
2022-07-29T05:25:06.963Z,25.97
2022-07-29T05:25:43.550Z,25.97
2022-07-29T05:26:12.358Z,25.96
2022-07-29T05:26:42.775Z,25.96
2022-07-29T05:27:13.194Z,25.96
2022-07-29T05:27:43.617Z,25.96
2022-07-29T05:28:14.036Z,25.96
2022-07-29T05:28:44.459Z,25.97
2022-07-29T05:29:42.862Z,25.98
2022-07-29T05:29:50.200Z,25.97
2022-07-29T05:30:20.616Z,25.95
2022-07-29T05:30:51.081Z,25.94
2022-07-29T05:31:21.844Z,25.93
2022-07-29T05:31:52.214Z,25.93
2022-07-29T05:32:22.637Z,25.92
2022-07-29T05:32:53.055Z,25.94
2022-07-29T05:33:35.124Z,25.94
2022-07-29T05:33:58.797Z,25.95
2022-07-29T05:34:29.223Z,25.94
2022-07-29T05:34:59.641Z,25.94
2022-07-29T05:35:30.065Z,25.93
2022-07-29T05:36:01.155Z,25.94
2022-07-29T05:36:31.635Z,25.94
2022-07-29T05:37:02.067Z,25.93
2022-07-29T05:37:32.479Z,25.94
2022-07-29T05:38:02.900Z,25.92
2022-07-29T05:38:33.327Z,25.90
2022-07-29T05:39:03.739Z,25.89
2022-07-29T05:39:48.276Z,25.89
2022-07-29T05:40:09.484Z,25.87
2022-07-29T05:40:39.913Z,25.84
2022-07-29T05:41:10.331Z,25.84
2022-07-29T05:41:40.750Z,25.83
2022-07-29T05:42:11.172Z,25.84
2022-07-29T05:42:41.588Z,25.83
2022-07-29T05:43:12.008Z,25.85
2022-07-29T05:43:42.427Z,25.85
2022-07-29T05:44:13.095Z,25.86
2022-07-29T05:44:43.582Z,25.84
2022-07-29T05:45:14.008Z,25.85
2022-07-29T05:45:50.026Z,25.85
2022-07-29T05:46:19.846Z,25.85
2022-07-29T05:46:50.348Z,25.86
2022-07-29T05:47:20.746Z,25.84
2022-07-29T05:47:51.172Z,25.85
2022-07-29T05:48:21.606Z,25.84
2022-07-29T05:48:52.103Z,25.85
2022-07-29T05:49:23.124Z,25.86
2022-07-29T05:49:57.735Z,25.85
2022-07-29T05:50:28.160Z,25.85
2022-07-29T05:50:58.582Z,25.86
2022-07-29T05:51:29.005Z,25.86
2022-07-29T05:51:59.428Z,25.86
2022-07-29T05:52:29.847Z,25.88
2022-07-29T05:53:00.277Z,25.89
2022-07-29T05:53:35.603Z,25.88
2022-07-29T05:54:06.026Z,25.88
2022-07-29T05:54:36.443Z,25.88
2022-07-29T05:55:06.863Z,25.88
2022-07-29T05:55:37.291Z,25.89
2022-07-29T05:56:09.778Z,25.89
2022-07-29T05:56:40.199Z,25.87
2022-07-29T05:57:10.619Z,25.87
2022-07-29T05:57:41.038Z,25.86
2022-07-29T05:58:11.459Z,25.89
2022-07-29T05:58:41.877Z,25.87
2022-07-29T05:59:17.912Z,25.86
2022-07-29T05:59:47.625Z,25.85
2022-07-29T06:00:18.047Z,25.85
2022-07-29T06:00:48.476Z,25.85
2022-07-29T06:01:18.940Z,25.83
2022-07-29T06:01:49.419Z,25.87
2022-07-29T06:02:19.809Z,25.86
2022-07-29T06:02:50.229Z,25.87
2022-07-29T06:03:20.654Z,25.89
2022-07-29T06:03:51.072Z,25.91
2022-07-29T06:04:21.610Z,25.93
2022-07-29T06:04:52.084Z,25.93
2022-07-29T06:05:22.473Z,25.93
2022-07-29T06:05:52.912Z,25.93
2022-07-29T06:06:23.333Z,25.94
2022-07-29T06:06:53.753Z,25.95
2022-07-29T06:07:24.188Z,25.97
2022-07-29T06:07:54.612Z,25.98
2022-07-29T06:08:25.031Z,26.00
2022-07-29T06:08:55.450Z,26.02
2022-07-29T06:09:25.875Z,26.04
2022-07-29T06:09:56.291Z,26.02
2022-07-29T06:10:27.121Z,26.02
2022-07-29T06:10:57.555Z,26.03
2022-07-29T06:11:27.977Z,26.02
2022-07-29T06:11:58.395Z,26.04
2022-07-29T06:12:28.817Z,26.07
2022-07-29T06:12:59.243Z,26.10
2022-07-29T06:13:29.660Z,26.10
2022-07-29T06:14:00.089Z,26.11
2022-07-29T06:14:30.501Z,26.12
2022-07-29T06:15:00.925Z,26.12
2022-07-29T06:15:31.731Z,26.11
2022-07-29T06:16:02.207Z,26.13
2022-07-29T06:16:32.755Z,26.15
2022-07-29T06:17:03.166Z,26.17
2022-07-29T06:17:33.588Z,26.20
2022-07-29T06:18:04.232Z,26.23
2022-07-29T06:18:34.653Z,26.22
2022-07-29T06:19:05.083Z,26.23
2022-07-29T06:19:35.525Z,26.22
2022-07-29T06:20:07.481Z,26.22
2022-07-29T06:20:38.001Z,26.20
2022-07-29T06:21:08.422Z,26.20
2022-07-29T06:21:42.193Z,26.20
2022-07-29T06:22:12.614Z,26.20
2022-07-29T06:22:43.039Z,26.20
2022-07-29T06:23:13.458Z,26.22
2022-07-29T06:23:43.877Z,26.21
2022-07-29T06:24:14.533Z,26.21
2022-07-29T06:24:45.102Z,26.21
2022-07-29T06:25:15.540Z,26.22
2022-07-29T06:25:45.972Z,26.22
2022-07-29T06:26:16.391Z,26.22
2022-07-29T06:26:46.810Z,26.22
2022-07-29T06:27:17.232Z,26.23
2022-07-29T06:27:47.653Z,26.23
2022-07-29T06:28:18.085Z,26.22
2022-07-29T06:28:48.498Z,26.23
2022-07-29T06:29:20.608Z,26.23
2022-07-29T06:29:51.027Z,26.21
2022-07-29T06:30:21.448Z,26.20
2022-07-29T06:30:51.918Z,26.20
2022-07-29T06:31:22.366Z,26.20
2022-07-29T06:31:52.750Z,26.21
2022-07-29T06:32:23.170Z,26.22
2022-07-29T06:32:57.803Z,26.22
2022-07-29T06:33:28.221Z,26.21
2022-07-29T06:33:58.643Z,26.21
2022-07-29T06:34:29.059Z,26.22
2022-07-29T06:35:24.545Z,26.22
2022-07-29T06:35:41.078Z,26.22
2022-07-29T06:36:10.145Z,26.22